sensor_id;sensor_type;location;lat;lon;timestamp;P1;durP1;ratioP1;P2;durP2;ratioP2
69026;SDS011;56080;47.594;19.116;2023-04-24T00:06:28;9.70;;;6.00;;
69026;SDS011;56080;47.594;19.116;2023-04-24T00:16:28;9.00;;;6.40;;
69026;SDS011;56080;47.594;19.116;2023-04-24T00:26:29;9.50;;;6.60;;
69026;SDS011;56080;47.594;19.116;2023-04-24T00:36:30;11.10;;;7.50;;
69026;SDS011;56080;47.594;19.116;2023-04-24T00:46:31;9.00;;;6.40;;
69026;SDS011;56080;47.594;19.116;2023-04-24T00:56:33;8.60;;;6.20;;
69026;SDS011;56080;47.594;19.116;2023-04-24T01:06:36;9.10;;;6.70;;
69026;SDS011;56080;47.594;19.116;2023-04-24T01:16:34;10.10;;;6.40;;
69026;SDS011;56080;47.594;19.116;2023-04-24T01:26:35;10.40;;;6.50;;
69026;SDS011;56080;47.594;19.116;2023-04-24T01:36:38;10.50;;;6.50;;
69026;SDS011;56080;47.594;19.116;2023-04-24T01:46:37;9.50;;;6.90;;
69026;SDS011;56080;47.594;19.116;2023-04-24T01:56:40;10.40;;;7.00;;
69026;SDS011;56080;47.594;19.116;2023-04-24T02:06:41;10.20;;;6.60;;
69026;SDS011;56080;47.594;19.116;2023-04-24T02:16:42;9.40;;;6.50;;
69026;SDS011;56080;47.594;19.116;2023-04-24T02:26:41;11.10;;;7.40;;
69026;SDS011;56080;47.594;19.116;2023-04-24T02:36:42;10.60;;;6.90;;
69026;SDS011;56080;47.594;19.116;2023-04-24T02:46:43;10.40;;;7.40;;
69026;SDS011;56080;47.594;19.116;2023-04-24T02:56:44;10.30;;;7.50;;
69026;SDS011;56080;47.594;19.116;2023-04-24T03:06:45;10.60;;;7.20;;
69026;SDS011;56080;47.594;19.116;2023-04-24T03:16:45;11.10;;;7.60;;
69026;SDS011;56080;47.594;19.116;2023-04-24T03:26:46;11.80;;;7.80;;
69026;SDS011;56080;47.594;19.116;2023-04-24T03:36:47;10.30;;;7.00;;
69026;SDS011;56080;47.594;19.116;2023-04-24T03:46:48;10.10;;;7.20;;
69026;SDS011;56080;47.594;19.116;2023-04-24T03:56:49;12.10;;;7.60;;
69026;SDS011;56080;47.594;19.116;2023-04-24T04:06:50;10.90;;;7.60;;
69026;SDS011;56080;47.594;19.116;2023-04-24T04:16:50;11.00;;;7.60;;
69026;SDS011;56080;47.594;19.116;2023-04-24T04:26:51;15.40;;;10.70;;
69026;SDS011;56080;47.594;19.116;2023-04-24T04:36:53;11.60;;;7.90;;
69026;SDS011;56080;47.594;19.116;2023-04-24T04:46:54;10.40;;;7.20;;
69026;SDS011;56080;47.594;19.116;2023-04-24T04:56:54;11.70;;;7.90;;
69026;SDS011;56080;47.594;19.116;2023-04-24T05:06:55;11.10;;;7.90;;
69026;SDS011;56080;47.594;19.116;2023-04-24T05:16:56;12.10;;;7.70;;
69026;SDS011;56080;47.594;19.116;2023-04-24T05:26:57;11.80;;;8.30;;
69026;SDS011;56080;47.594;19.116;2023-04-24T05:36:58;12.30;;;8.20;;
69026;SDS011;56080;47.594;19.116;2023-04-24T05:57:00;9.70;;;7.40;;
69026;SDS011;56080;47.594;19.116;2023-04-24T06:07:05;9.90;;;6.80;;
69026;SDS011;56080;47.594;19.116;2023-04-24T06:17:02;61.30;;;35.90;;
69026;SDS011;56080;47.594;19.116;2023-04-24T06:27:03;30.80;;;20.90;;
69026;SDS011;56080;47.594;19.116;2023-04-24T06:37:05;11.90;;;8.50;;
69026;SDS011;56080;47.594;19.116;2023-04-24T06:47:07;11.80;;;8.30;;
69026;SDS011;56080;47.594;19.116;2023-04-24T06:57:08;15.10;;;9.70;;
69026;SDS011;56080;47.594;19.116;2023-04-24T07:07:08;11.60;;;8.80;;
69026;SDS011;56080;47.594;19.116;2023-04-24T07:17:08;11.10;;;8.30;;
69026;SDS011;56080;47.594;19.116;2023-04-24T07:27:11;12.10;;;8.40;;
69026;SDS011;56080;47.594;19.116;2023-04-24T07:37:11;12.00;;;8.60;;
69026;SDS011;56080;47.594;19.116;2023-04-24T07:47:12;13.20;;;9.20;;
69026;SDS011;56080;47.594;19.116;2023-04-24T07:57:13;13.30;;;9.10;;
69026;SDS011;56080;47.594;19.116;2023-04-24T08:07:13;13.70;;;9.50;;
69026;SDS011;56080;47.594;19.116;2023-04-24T08:17:16;13.40;;;9.40;;
69026;SDS011;56080;47.594;19.116;2023-04-24T08:27:16;12.90;;;9.20;;
69026;SDS011;56080;47.594;19.116;2023-04-24T08:37:17;11.20;;;9.10;;
69026;SDS011;56080;47.594;19.116;2023-04-24T08:47:19;13.80;;;10.00;;
69026;SDS011;56080;47.594;19.116;2023-04-24T08:57:24;13.90;;;9.60;;
69026;SDS011;56080;47.594;19.116;2023-04-24T09:07:22;13.70;;;9.10;;
69026;SDS011;56080;47.594;19.116;2023-04-24T09:17:22;13.60;;;9.70;;
69026;SDS011;56080;47.594;19.116;2023-04-24T09:27:24;11.50;;;9.00;;
69026;SDS011;56080;47.594;19.116;2023-04-24T09:37:35;12.80;;;8.50;;
69026;SDS011;56080;47.594;19.116;2023-04-24T09:47:25;9.40;;;6.60;;
69026;SDS011;56080;47.594;19.116;2023-04-24T09:57:27;10.00;;;5.50;;
69026;SDS011;56080;47.594;19.116;2023-04-24T10:07:28;9.60;;;6.20;;
69026;SDS011;56080;47.594;19.116;2023-04-24T10:17:31;9.10;;;5.70;;
69026;SDS011;56080;47.594;19.116;2023-04-24T10:27:31;8.00;;;5.10;;
69026;SDS011;56080;47.594;19.116;2023-04-24T10:37:35;8.40;;;5.50;;
69026;SDS011;56080;47.594;19.116;2023-04-24T10:47:41;8.10;;;5.50;;
69026;SDS011;56080;47.594;19.116;2023-04-24T10:57:36;9.40;;;6.40;;
69026;SDS011;56080;47.594;19.116;2023-04-24T11:17:39;9.90;;;7.00;;
69026;SDS011;56080;47.594;19.116;2023-04-24T11:27:42;11.00;;;7.70;;
69026;SDS011;56080;47.594;19.116;2023-04-24T11:37:49;10.10;;;7.10;;
69026;SDS011;56080;47.594;19.116;2023-04-24T11:47:44;14.50;;;8.30;;
69026;SDS011;56080;47.594;19.116;2023-04-24T11:57:45;10.00;;;7.40;;
69026;SDS011;56080;47.594;19.116;2023-04-24T12:07:52;10.10;;;7.70;;
69026;SDS011;56080;47.594;19.116;2023-04-24T12:17:51;11.10;;;8.10;;
69026;SDS011;56080;47.594;19.116;2023-04-24T12:27:52;12.30;;;8.60;;
69026;SDS011;56080;47.594;19.116;2023-04-24T12:37:52;11.90;;;8.90;;
69026;SDS011;56080;47.594;19.116;2023-04-24T12:47:51;13.50;;;8.80;;
69026;SDS011;56080;47.594;19.116;2023-04-24T12:57:51;10.20;;;7.10;;
69026;SDS011;56080;47.594;19.116;2023-04-24T13:07:53;13.00;;;8.30;;
69026;SDS011;56080;47.594;19.116;2023-04-24T13:17:54;12.20;;;7.80;;
69026;SDS011;56080;47.594;19.116;2023-04-24T13:27:55;12.60;;;7.90;;
69026;SDS011;56080;47.594;19.116;2023-04-24T13:37:57;10.60;;;6.30;;
69026;SDS011;56080;47.594;19.116;2023-04-24T13:48:01;8.10;;;4.60;;
69026;SDS011;56080;47.594;19.116;2023-04-24T13:58:00;9.80;;;4.90;;
69026;SDS011;56080;47.594;19.116;2023-04-24T14:08:01;8.30;;;5.20;;
69026;SDS011;56080;47.594;19.116;2023-04-24T14:18:02;7.70;;;4.50;;
69026;SDS011;56080;47.594;19.116;2023-04-24T14:28:03;8.80;;;5.70;;
69026;SDS011;56080;47.594;19.116;2023-04-24T14:38:05;7.30;;;5.30;;
69026;SDS011;56080;47.594;19.116;2023-04-24T14:48:05;8.50;;;5.40;;
69026;SDS011;56080;47.594;19.116;2023-04-24T14:58:07;8.30;;;5.80;;
69026;SDS011;56080;47.594;19.116;2023-04-24T15:08:08;7.00;;;4.60;;
69026;SDS011;56080;47.594;19.116;2023-04-24T15:18:09;7.30;;;4.60;;
69026;SDS011;56080;47.594;19.116;2023-04-24T15:28:11;7.40;;;5.00;;
69026;SDS011;56080;47.594;19.116;2023-04-24T15:38:12;8.10;;;5.00;;
69026;SDS011;56080;47.594;19.116;2023-04-24T15:48:13;6.50;;;4.00;;
69026;SDS011;56080;47.594;19.116;2023-04-24T15:58:14;5.40;;;3.20;;
69026;SDS011;56080;47.594;19.116;2023-04-24T16:25:57;6.30;;;3.80;;
69026;SDS011;56080;47.594;19.116;2023-04-24T16:28:17;7.70;;;3.30;;
69026;SDS011;56080;47.594;19.116;2023-04-24T16:38:20;5.90;;;3.30;;
69026;SDS011;56080;47.594;19.116;2023-04-24T16:48:20;6.60;;;3.90;;
69026;SDS011;56080;47.594;19.116;2023-04-24T16:58:21;6.10;;;3.50;;
69026;SDS011;56080;47.594;19.116;2023-04-24T17:08:23;5.60;;;3.30;;
69026;SDS011;56080;47.594;19.116;2023-04-24T17:18:24;5.40;;;3.10;;
69026;SDS011;56080;47.594;19.116;2023-04-24T17:28:35;4.90;;;2.30;;
69026;SDS011;56080;47.594;19.116;2023-04-24T17:48:28;5.90;;;2.70;;
69026;SDS011;56080;47.594;19.116;2023-04-24T17:58:29;7.10;;;4.40;;
69026;SDS011;56080;47.594;19.116;2023-04-24T18:08:30;4.90;;;2.60;;
69026;SDS011;56080;47.594;19.116;2023-04-24T18:18:31;5.30;;;2.30;;
69026;SDS011;56080;47.594;19.116;2023-04-24T18:28:32;4.60;;;2.00;;
69026;SDS011;56080;47.594;19.116;2023-04-24T18:48:34;5.10;;;2.50;;
69026;SDS011;56080;47.594;19.116;2023-04-24T18:58:37;5.80;;;3.00;;
69026;SDS011;56080;47.594;19.116;2023-04-24T19:08:37;4.70;;;2.10;;
69026;SDS011;56080;47.594;19.116;2023-04-24T19:18:38;4.20;;;1.80;;
69026;SDS011;56080;47.594;19.116;2023-04-24T19:28:38;4.30;;;1.90;;
69026;SDS011;56080;47.594;19.116;2023-04-24T19:38:40;6.30;;;3.10;;
69026;SDS011;56080;47.594;19.116;2023-04-24T19:48:41;5.10;;;2.30;;
69026;SDS011;56080;47.594;19.116;2023-04-24T19:58:41;5.50;;;2.20;;
69026;SDS011;56080;47.594;19.116;2023-04-24T20:08:43;4.60;;;2.10;;
69026;SDS011;56080;47.594;19.116;2023-04-24T20:18:43;4.30;;;2.00;;
69026;SDS011;56080;47.594;19.116;2023-04-24T20:28:44;4.00;;;1.70;;
69026;SDS011;56080;47.594;19.116;2023-04-24T20:38:46;5.40;;;2.20;;
69026;SDS011;56080;47.594;19.116;2023-04-24T20:48:46;4.40;;;1.80;;
69026;SDS011;56080;47.594;19.116;2023-04-24T20:58:48;5.40;;;2.30;;
69026;SDS011;56080;47.594;19.116;2023-04-24T21:08:49;4.80;;;2.40;;
69026;SDS011;56080;47.594;19.116;2023-04-24T21:18:50;4.60;;;2.10;;
69026;SDS011;56080;47.594;19.116;2023-04-24T21:28:51;5.10;;;2.40;;
69026;SDS011;56080;47.594;19.116;2023-04-24T21:38:52;5.00;;;2.10;;
69026;SDS011;56080;47.594;19.116;2023-04-24T21:48:53;4.90;;;2.20;;
69026;SDS011;56080;47.594;19.116;2023-04-24T21:58:55;4.50;;;2.10;;
69026;SDS011;56080;47.594;19.116;2023-04-24T22:08:57;4.70;;;1.90;;
69026;SDS011;56080;47.594;19.116;2023-04-24T22:18:58;4.60;;;1.70;;
69026;SDS011;56080;47.594;19.116;2023-04-24T22:28:59;3.90;;;1.40;;
69026;SDS011;56080;47.594;19.116;2023-04-24T22:38:58;4.00;;;1.40;;
69026;SDS011;56080;47.594;19.116;2023-04-24T22:48:59;3.90;;;1.30;;
69026;SDS011;56080;47.594;19.116;2023-04-24T22:59:00;4.10;;;1.30;;
69026;SDS011;56080;47.594;19.116;2023-04-24T23:09:01;3.30;;;1.30;;
69026;SDS011;56080;47.594;19.116;2023-04-24T23:19:03;3.90;;;1.60;;
69026;SDS011;56080;47.594;19.116;2023-04-24T23:29:03;3.80;;;1.40;;
69026;SDS011;56080;47.594;19.116;2023-04-24T23:39:04;4.20;;;1.40;;
69026;SDS011;56080;47.594;19.116;2023-04-24T23:49:05;3.90;;;1.50;;
69026;SDS011;56080;47.594;19.116;2023-04-24T23:59:06;3.50;;;1.30;;
